Chania/Souda, Griechenland

12:38 PM EET am 22. Februar 2017 (GMT +0200)
Souda Air Base | | Change Station

Höhe 495 ft 35.48 °N, 24.12 °E | Updated 18 minutes ago

Partly Cloudy
Teils Wolkig
63 °F
gefühlte 63 °F
N
5
Wind Wechselnd Wind aus Nord-Nordwest

Heute
Max. -- | schwach -- °F
--% Regenrisiko
Gestern
Max. -- | schwach -- °F
Precip. -- inch
Druck 30.12 inch
Sichtweite 6.2 Meilen
Wolken Few 2500 ft
Taupunkt 55 °F
Feuchtigkeit 77%
Regen 0.00 inch
Schneehöhe Nicht verfügbar..
7:02 AM 6:12 PM
Letztes Viertel, 18% visible
METAR LGSA 221020Z 33004KT 9999 FEW025 17/13 Q1020
Druck 30.12 inch
Sichtweite 6.2 Meilen
Wolken Few 2500 ft
Taupunkt 55 °F
Feuchtigkeit 77%
Regen 0.00 inch
Schneehöhe Nicht verfügbar..
7:02 AM 6:12 PM
Letztes Viertel, 18% visible
METAR LGSA 221020Z 33004KT 9999 FEW025 17/13 Q1020

Get Your Daily Forecast Email!

Thanks for signing up!

Be on the lookout for a verification email in your inbox.

You'll start receiving the daily forecast at 8 AM.

×

10-Day Weather Forecast

×

Almanac

Astronomie

Feb. 22, 2017 Aufgang Untergang
Genaue Zeit
Bürgerliche Dämmerung
Nautische Dämmerung
Astronomische Dämmerung
Mond
Länge des sichtbaren Lichts
Tageslänge
Tomorrow will be .
, % of the Moon is Illuminated

Heutige Rekorde

Country Highs Country Lows

Community

WunderPhotos

Upload Photos

1,962,540 Fotos hochgeladen!

WunderBlog® & News

Nearby

Luftqualität

  Luftqualität LQ Index Schadstoff
Not available.

Schneehöhe

Station Depth Höhe

Erdbebenaktivität

Stadt Distance Mag. Time & Date
Minimum magnitude displayed is 2.5.

küstennahe Wassertemperaturen

Ort Temperatur

Stations

Wetterstationen in der Umgebung

Stationsstandort Temp. Windchill Taupunkt Feuchtigkeit Wind Precip. Höhe Aktualisiert Art